Time;durP1;ratioP1;P1;durP2;ratioP2;P2;SDS_P1;SDS_P2;PMS_P1;PMS_P2;Temp;Humidity;BMP_temperature;BMP_pressure;BME280_temperature;BME280_humidity;BME280_pressure;Samples;Min_cycle;Max_cycle;Signal;HPM_P1;HPM_P2
2024/04/20 00:01:24;;;;;;;0.00;0.00;;;;;;;6.58;82.60;99833.66;16791266;26;20011;-50
2024/04/20 00:09:00;;;;;;;0.00;0.00;;;;;;;6.88;81.42;99852.69;16791725;26;20319;-54
2024/04/20 00:16:41;;;;;;;0.00;0.00;;;;;;;7.18;80.58;99854.88;16791170;26;20000;-52
2024/04/20 00:24:27;;;;;;;0.00;0.00;;;;;;;7.08;81.20;99873.97;16791614;26;20014;-52
2024/04/20 00:32:06;;;;;;;0.55;0.55;;;;;;;7.06;81.53;99882.22;16787644;26;20472;-50
2024/04/20 00:39:42;;;;;;;0.00;0.00;;;;;;;7.05;82.17;99901.09;16781204;26;20017;-54
2024/04/20 00:47:20;;;;;;;0.08;0.08;;;;;;;6.95;82.52;99909.53;16789615;26;20011;-56
2024/04/20 00:54:57;;;;;;;0.00;0.00;;;;;;;6.76;83.05;99916.53;16789445;26;20435;-52
2024/04/20 01:02:34;;;;;;;0.00;0.00;;;;;;;6.99;82.43;99936.59;16785902;26;20469;-50
2024/04/20 01:10:10;;;;;;;2.45;0.57;;;;;;;6.79;82.65;99950.75;16788728;26;20003;-51
2024/04/20 01:17:49;;;;;;;0.00;0.00;;;;;;;6.66;83.10;99953.41;16788692;26;20014;-53
2024/04/20 01:25:25;;;;;;;0.00;0.00;;;;;;;6.63;83.35;99973.34;16787383;26;20342;-51
2024/04/20 01:33:03;;;;;;;0.00;0.00;;;;;;;6.29;84.72;99979.59;16789488;26;20036;-52
2024/04/20 01:40:38;;;;;;;0.00;0.00;;;;;;;6.56;82.73;99998.34;16791623;26;20000;-52
2024/04/20 01:48:19;;;;;;;0.00;0.00;;;;;;;6.32;83.94;99999.72;16797127;26;20076;-55
2024/04/20 01:55:56;;;;;;;0.15;0.10;;;;;;;6.32;83.97;100016.53;16798451;26;19999;-53
2024/04/20 02:03:34;;;;;;;0.00;0.00;;;;;;;6.33;84.66;100030.66;16796923;26;20000;-52
2024/04/20 02:11:11;;;;;;;0.00;0.00;;;;;;;6.78;83.41;100044.34;16797074;26;20018;-53
2024/04/20 02:18:52;;;;;;;0.00;0.00;;;;;;;5.80;86.37;100068.50;16781958;26;20000;-52
2024/04/20 02:26:30;;;;;;;0.00;0.00;;;;;;;5.80;86.86;100079.16;16795782;26;19996;-51
2024/04/20 02:34:14;;;;;;;0.00;0.00;;;;;;;5.86;86.02;100094.34;16784730;26;20031;-54
2024/04/20 02:41:51;;;;;;;0.00;0.00;;;;;;;5.73;86.64;100106.75;16794951;26;20000;-50
2024/04/20 02:49:30;;;;;;;0.17;0.10;;;;;;;5.35;87.12;100129.19;16793198;26;20461;-50
2024/04/20 02:57:06;;;;;;;0.00;0.00;;;;;;;5.35;87.26;100152.31;16791974;26;20343;-52
2024/04/20 03:04:45;;;;;;;0.00;0.00;;;;;;;5.11;86.98;100170.28;16794085;26;20126;-56
2024/04/20 03:12:23;;;;;;;0.00;0.00;;;;;;;4.95;86.52;100205.13;16795763;26;20334;-49
2024/04/20 03:20:06;;;;;;;0.00;0.00;;;;;;;4.96;85.97;100185.47;16795410;26;19999;-48
2024/04/20 03:27:42;;;;;;;0.47;0.30;;;;;;;4.93;85.68;100216.94;16793423;26;19996;-49
2024/04/20 03:35:23;;;;;;;0.00;0.00;;;;;;;4.68;85.70;100238.53;16793688;26;20072;-48
2024/04/20 03:43:00;;;;;;;0.00;0.00;;;;;;;4.78;85.61;100262.16;16793715;26;20011;-52
2024/04/20 03:50:43;;;;;;;0.00;0.00;;;;;;;4.73;85.28;100278.66;16780766;26;20331;-51
2024/04/20 03:58:18;;;;;;;0.00;0.00;;;;;;;4.80;85.29;100300.88;16791932;26;20010;-50
2024/04/20 04:05:58;;;;;;;0.00;0.00;;;;;;;4.85;85.07;100316.28;16792970;26;20010;-52
2024/04/20 04:13:34;;;;;;;0.00;0.00;;;;;;;4.52;84.96;100331.72;16791632;26;20003;-50
2024/04/20 04:21:13;;;;;;;0.00;0.00;;;;;;;4.72;84.99;100348.81;16790021;26;20003;-49
2024/04/20 04:28:50;;;;;;;0.00;0.00;;;;;;;4.54;84.53;100366.91;16791066;26;20032;-50
2024/04/20 04:36:31;;;;;;;0.00;0.00;;;;;;;4.58;83.51;100392.97;16791008;26;20007;-54
2024/04/20 04:44:06;;;;;;;1.95;1.27;;;;;;;4.57;83.39;100425.88;16789896;26;20032;-48
2024/04/20 04:51:44;;;;;;;0.20;0.20;;;;;;;4.52;82.68;100440.69;16758535;26;20359;-52
2024/04/20 04:59:37;;;;;;;0.00;0.00;;;;;;;4.19;83.14;100434.78;16764634;26;20000;-52
2024/04/20 05:07:15;;;;;;;0.00;0.00;;;;;;;4.73;81.96;100483.38;16789340;26;20106;-51
2024/04/20 05:14:58;;;;;;;0.00;0.00;;;;;;;4.21;82.30;100488.56;16795628;26;20007;-53
2024/04/20 05:22:54;;;;;;;0.00;0.00;;;;;;;4.35;81.57;100535.66;16775952;26;20019;-51
2024/04/20 05:30:29;;;;;;;0.00;0.00;;;;;;;4.40;80.88;100549.22;16800508;26;20307;-50
2024/04/20 05:38:10;;;;;;;0.00;0.00;;;;;;;4.66;80.46;100564.84;16798327;26;20008;-49
2024/04/20 05:45:45;;;;;;;0.00;0.00;;;;;;;4.53;80.27;100588.53;16800714;26;20060;-51
2024/04/20 05:53:29;;;;;;;0.00;0.00;;;;;;;4.58;79.64;100605.59;16797832;26;20018;-51
2024/04/20 06:01:05;;;;;;;0.00;0.00;;;;;;;4.95;78.36;100617.34;16799441;26;20008;-51
2024/04/20 06:08:43;;;;;;;0.00;0.00;;;;;;;4.48;79.50;100654.69;16799258;26;20000;-51
2024/04/20 06:16:18;;;;;;;0.00;0.00;;;;;;;4.51;78.46;100663.09;16790793;26;20007;-50
2024/04/20 06:23:56;;;;;;;0.00;0.00;;;;;;;4.84;77.15;100681.56;16797236;26;20003;-50
2024/04/20 06:31:31;;;;;;;0.00;0.00;;;;;;;5.13;75.62;100688.91;16795038;26;20064;-51
2024/04/20 06:39:10;;;;;;;0.00;0.00;;;;;;;5.55;70.77;100695.59;16795751;26;20000;-55
2024/04/20 06:46:45;;;;;;;0.00;0.00;;;;;;;5.58;70.37;100717.34;16785659;26;20068;-52
2024/04/20 06:54:22;;;;;;;0.00;0.00;;;;;;;5.72;69.42;100729.06;16792371;26;19999;-51
2024/04/20 07:01:57;;;;;;;0.00;0.00;;;;;;;6.52;67.39;100744.47;16788363;26;19996;-52
2024/04/20 07:09:35;;;;;;;0.00;0.00;;;;;;;6.65;65.65;100759.84;16749776;26;20446;-55
2024/04/20 07:17:10;;;;;;;0.00;0.00;;;;;;;7.37;64.33;100775.97;16786453;26;20000;-51
2024/04/20 07:24:48;;;;;;;0.00;0.00;;;;;;;8.71;59.96;100796.66;16792999;26;20435;-51
2024/04/20 07:32:23;;;;;;;0.00;0.00;;;;;;;8.37;58.31;100807.13;16794447;26;20015;-53
2024/04/20 07:40:04;;;;;;;0.30;0.20;;;;;;;9.24;57.14;100815.69;16791561;26;20076;-50
2024/04/20 07:47:39;;;;;;;0.00;0.00;;;;;;;8.58;57.57;100833.03;16778195;26;20007;-54
2024/04/20 07:55:19;;;;;;;0.30;0.30;;;;;;;7.46;59.46;100855.94;16785081;26;20000;-53
2024/04/20 08:02:54;;;;;;;0.00;0.00;;;;;;;9.22;55.13;100860.59;16761466;26;20072;-50
2024/04/20 08:10:33;;;;;;;0.00;0.00;;;;;;;8.76;55.93;100886.03;16780193;26;20304;-55
2024/04/20 08:18:10;;;;;;;0.00;0.00;;;;;;;10.79;55.42;100874.56;16788332;26;19995;-52
2024/04/20 08:25:48;;;;;;;0.00;0.00;;;;;;;8.57;54.79;100918.81;16792907;26;20004;-50
2024/04/20 08:33:23;;;;;;;0.10;0.10;;;;;;;8.65;56.79;100930.22;16792804;26;20010;-54
2024/04/20 08:41:05;;;;;;;0.00;0.00;;;;;;;10.20;52.49;100939.72;16793205;26;20008;-52
2024/04/20 08:48:42;;;;;;;0.38;0.30;;;;;;;11.29;49.92;100951.97;16793758;26;19999;-50
2024/04/20 08:56:20;;;;;;;0.00;0.00;;;;;;;8.08;55.57;100981.88;16802532;26;19999;-53
2024/04/20 09:03:56;;;;;;;0.00;0.00;;;;;;;7.79;55.42;100982.75;16801478;26;20000;-53
2024/04/20 09:11:36;;;;;;;0.00;0.00;;;;;;;7.75;56.61;101012.72;16801052;26;20023;-52
2024/04/20 09:19:11;;;;;;;0.32;0.15;;;;;;;8.52;53.99;101002.31;16788479;21;20021;-46
2024/04/20 09:26:53;;;;;;;0.00;0.00;;;;;;;8.20;54.03;101016.97;16678448;26;20000;-49
2024/04/20 09:34:28;;;;;;;0.00;0.00;;;;;;;9.99;55.84;101026.50;16579892;26;20001;-48
2024/04/20 09:42:07;;;;;;;0.00;0.00;;;;;;;9.96;50.29;101037.63;16571643;26;20009;-47
2024/04/20 09:49:48;;;;;;;0.00;0.00;;;;;;;10.18;51.69;101049.91;16575239;26;20028;-46
2024/04/20 09:57:28;;;;;;;0.00;0.00;;;;;;;9.10;53.79;101058.50;16572075;26;20078;-47
2024/04/20 10:05:03;;;;;;;0.00;0.00;;;;;;;10.58;51.19;101068.03;16533856;26;20016;-49
2024/04/20 10:12:45;;;;;;;0.90;0.90;;;;;;;9.38;56.62;101077.25;16569519;26;20160;-46
2024/04/20 10:20:20;;;;;;;0.00;0.00;;;;;;;8.90;56.28;101088.56;16567579;26;20016;-47
2024/04/20 10:27:58;;;;;;;0.00;0.00;;;;;;;11.15;49.32;101064.84;16529619;26;20463;-45
2024/04/20 10:35:34;;;;;;;0.00;0.00;;;;;;;13.45;45.03;101084.88;16567235;26;20036;-47
2024/04/20 10:43:13;;;;;;;0.00;0.00;;;;;;;11.98;46.31;101094.78;16566443;26;20016;-48
2024/04/20 10:50:48;;;;;;;0.00;0.00;;;;;;;9.55;49.75;101109.94;16571120;26;20296;-48
2024/04/20 10:58:26;;;;;;;0.00;0.00;;;;;;;10.46;49.82;101111.56;16534198;26;20048;-48
2024/04/20 11:06:02;;;;;;;0.00;0.00;;;;;;;9.27;50.31;101089.31;16556096;26;20285;-50
2024/04/20 11:13:43;;;;;;;0.00;0.00;;;;;;;10.21;47.07;101089.75;16553469;26;20043;-49
2024/04/20 11:21:18;;;;;;;0.00;0.00;;;;;;;10.50;48.50;101125.41;16565610;26;20116;-54
2024/04/20 11:28:57;;;;;;;0.10;0.10;;;;;;;13.13;41.70;101129.88;16564790;26;20553;-53
2024/04/20 11:36:32;;;;;;;0.00;0.00;;;;;;;13.84;38.00;101119.78;16564366;26;20097;-49
2024/04/20 11:44:13;;;;;;;0.00;0.00;;;;;;;14.57;36.84;101121.72;16563212;26;20004;-48
2024/04/20 11:59:54;;;;;;;0.00;0.00;;;;;;;13.87;41.85;101140.94;16554873;26;20305;-50
2024/04/20 12:07:29;;;;;;;0.10;0.10;;;;;;;10.23;48.44;101159.31;16562257;26;20035;-51
2024/04/20 12:15:08;;;;;;;0.00;0.00;;;;;;;9.17;49.69;101161.13;16524695;26;20001;-50
2024/04/20 12:22:44;;;;;;;10.43;1.15;;;;;;;11.14;45.41;101157.19;16561897;26;20020;-50
2024/04/20 12:30:22;;;;;;;0.00;0.00;;;;;;;13.00;38.97;101149.63;16561717;26;20005;-51
2024/04/20 12:37:59;;;;;;;0.00;0.00;;;;;;;15.09;33.51;101157.19;16542450;26;20000;-50
2024/04/20 12:45:39;;;;;;;0.00;0.00;;;;;;;13.58;35.71;101169.41;16523558;26;20339;-48
2024/04/20 12:53:13;;;;;;;0.00;0.00;;;;;;;13.46;36.80;101169.28;16531747;26;20568;-49
2024/04/20 13:00:52;;;;;;;0.00;0.00;;;;;;;12.12;38.89;101176.28;16550007;26;20412;-55
2024/04/20 13:08:28;;;;;;;0.08;0.08;;;;;;;12.08;41.96;101176.94;16528643;26;20005;-49
2024/04/20 13:16:07;;;;;;;0.00;0.00;;;;;;;12.52;36.91;101178.88;16523844;26;20015;-53
2024/04/20 13:23:44;;;;;;;0.00;0.00;;;;;;;11.47;39.08;101183.28;16561242;26;20004;-51
2024/04/20 13:31:22;;;;;;;0.00;0.00;;;;;;;11.10;41.32;101190.91;16559087;26;20143;-50
2024/04/20 13:38:57;;;;;;;0.00;0.00;;;;;;;10.09;42.10;101198.63;16568467;26;20078;-53
2024/04/20 13:46:35;;;;;;;0.00;0.00;;;;;;;10.22;41.79;101209.44;16573312;26;20463;-49
2024/04/20 13:54:11;;;;;;;0.00;0.00;;;;;;;11.48;41.84;101217.22;16558575;26;20021;-51
2024/04/20 14:01:50;;;;;;;0.00;0.00;;;;;;;10.98;38.91;101212.13;16567652;26;20012;-48
2024/04/20 14:09:24;;;;;;;0.00;0.00;;;;;;;11.63;39.65;101227.78;16568017;26;19997;-45
2024/04/20 14:17:02;;;;;;;0.00;0.00;;;;;;;11.41;39.84;101216.38;16567707;26;20009;-47
2024/04/20 14:24:41;;;;;;;7.68;1.35;;;;;;;10.85;41.15;101222.81;16567780;26;20375;-48
2024/04/20 14:32:20;;;;;;;0.00;0.00;;;;;;;11.31;39.43;101191.75;16566532;26;20464;-48
2024/04/20 14:39:57;;;;;;;0.00;0.00;;;;;;;11.48;39.33;101226.13;16566932;26;20407;-48
2024/04/20 14:47:36;;;;;;;0.00;0.00;;;;;;;11.17;40.97;101225.81;16570562;26;20352;-48
2024/04/20 14:55:11;;;;;;;0.00;0.00;;;;;;;10.91;39.55;101235.47;16567628;26;20033;-51
2024/04/20 15:02:49;;;;;;;0.00;0.00;;;;;;;10.73;41.16;101236.00;16567260;26;20008;-48
2024/04/20 15:10:24;;;;;;;0.00;0.00;;;;;;;10.33;40.01;101234.94;16557035;26;20066;-47
2024/04/20 15:25:38;;;;;;;0.00;0.00;;;;;;;9.94;41.84;101235.44;17010430;25;20417;-86
2024/04/20 15:33:14;;;;;;;0.00;0.00;;;;;;;9.96;41.90;101215.44;17092547;25;20001;-83
2024/04/20 15:40:55;;;;;;;0.00;0.00;;;;;;;10.15;40.58;101219.28;16970203;25;20010;-85
2024/04/20 15:48:30;;;;;;;0.10;0.10;;;;;;;9.68;40.42;101142.22;16967354;26;20319;-84
2024/04/20 15:56:09;;;;;;;0.00;0.00;;;;;;;9.97;39.96;101205.53;16990690;26;20002;-84
2024/04/20 16:03:45;;;;;;;0.00;0.00;;;;;;;9.85;39.25;101247.31;17042212;26;19994;-84
2024/04/20 16:11:23;;;;;;;0.00;0.00;;;;;;;9.86;40.11;101260.53;16998479;25;19999;-84
2024/04/20 16:18:59;;;;;;;0.00;0.00;;;;;;;9.91;38.65;101238.50;17015036;25;19998;-85
2024/04/20 16:26:37;;;;;;;0.00;0.00;;;;;;;9.47;39.33;101244.09;16982475;26;20379;-85
2024/04/20 16:34:13;;;;;;;0.00;0.00;;;;;;;9.63;40.27;101206.28;16987401;26;20055;-85
2024/04/20 16:41:51;;;;;;;0.00;0.00;;;;;;;9.91;41.47;101268.81;16989679;26;20013;-84
2024/04/20 16:49:32;;;;;;;0.00;0.00;;;;;;;9.51;42.54;101230.09;16967998;26;20451;-85
2024/04/20 16:57:14;;;;;;;0.10;0.10;;;;;;;8.77;42.55;101192.00;16968361;26;20009;-85
2024/04/20 17:04:51;;;;;;;0.20;0.20;;;;;;;9.52;42.37;101281.84;16940180;26;20006;-85
2024/04/20 17:12:29;;;;;;;0.00;0.00;;;;;;;9.26;43.05;101269.81;17013391;26;20002;-85
2024/04/20 17:20:05;;;;;;;0.05;0.05;;;;;;;9.60;43.23;101253.06;16987523;26;20013;-83
2024/04/20 17:27:46;;;;;;;0.03;0.03;;;;;;;8.94;41.72;101285.28;16977236;26;20010;-84
2024/04/20 17:35:30;;;;;;;0.13;0.13;;;;;;;9.08;43.92;101267.53;16967482;26;20017;-84
2024/04/20 17:43:09;;;;;;;0.00;0.00;;;;;;;9.55;41.77;101298.34;16978933;26;20103;-85
2024/04/20 17:50:44;;;;;;;2.63;1.92;;;;;;;8.96;43.03;101322.59;16942933;26;20081;-83
2024/04/20 17:58:23;;;;;;;0.00;0.00;;;;;;;9.07;44.30;101332.81;16926192;26;20437;-83
2024/04/20 18:06:09;;;;;;;0.00;0.00;;;;;;;9.15;44.08;101330.06;17002727;26;20335;-85
2024/04/20 18:14:45;;;;;;;0.00;0.00;;;;;;;9.01;44.72;101344.28;16997159;26;19998;-84
2024/04/20 18:22:24;;;;;;;0.73;0.73;;;;;;;8.66;46.84;101269.03;16979923;26;20055;-85
2024/04/20 18:30:01;;;;;;;0.50;0.50;;;;;;;8.72;46.85;101299.63;17004404;26;20005;-83
2024/04/20 18:37:40;;;;;;;0.32;0.32;;;;;;;9.07;46.79;101362.28;17002371;26;20385;-84
2024/04/20 18:45:15;;;;;;;0.00;0.00;;;;;;;8.80;46.20;101366.41;16980400;26;19998;-84
2024/04/20 18:52:53;;;;;;;0.00;0.00;;;;;;;8.09;48.59;101343.63;17025812;26;20078;-85
2024/04/20 19:00:31;;;;;;;0.05;0.05;;;;;;;7.65;49.60;101369.16;16965915;26;19998;-85
2024/04/20 19:08:11;;;;;;;0.52;0.52;;;;;;;6.89;50.48;101330.56;16953279;26;20010;-83
2024/04/20 19:15:51;;;;;;;0.00;0.00;;;;;;;7.19;50.75;101383.38;16954658;26;20143;-85
2024/04/20 19:23:32;;;;;;;0.00;0.00;;;;;;;6.99;51.42;101407.78;16987438;26;20096;-85
2024/04/20 19:31:09;;;;;;;0.00;0.00;;;;;;;6.58;52.78;101372.34;17010013;26;20002;-85
2024/04/20 19:38:49;;;;;;;0.57;0.57;;;;;;;6.25;53.02;101355.50;16992551;26;19998;-85
2024/04/20 19:46:26;;;;;;;0.00;0.00;;;;;;;7.00;52.88;101416.66;16989945;26;20032;-85
2024/04/20 19:54:06;;;;;;;0.00;0.00;;;;;;;6.33;54.65;101375.00;16959581;26;20012;-83
2024/04/20 20:01:41;;;;;;;0.00;0.00;;;;;;;7.12;53.71;101401.91;16982270;26;20475;-86
2024/04/20 20:09:21;;;;;;;0.00;0.00;;;;;;;6.88;53.19;101406.31;16991004;26;20009;-85
2024/04/20 20:16:57;;;;;;;0.00;0.00;;;;;;;6.00;53.41;101318.19;16950845;26;20084;-85
2024/04/20 20:25:05;;;;;;;0.22;0.08;;;;;;;6.28;55.48;101452.00;17012555;26;20061;-85
2024/04/20 20:32:40;;;;;;;0.10;0.10;;;;;;;5.25;57.70;101406.03;17026466;26;20511;-85
2024/04/20 20:40:21;;;;;;;0.57;0.32;;;;;;;5.55;57.39;101404.66;16925053;26;20082;-84
2024/04/20 20:48:00;;;;;;;0.38;0.38;;;;;;;5.86;56.65;101414.72;16960640;26;20002;-84
2024/04/20 20:55:38;;;;;;;0.00;0.00;;;;;;;5.90;56.11;101389.44;16968021;26;19994;-83
2024/04/20 21:03:14;;;;;;;0.00;0.00;;;;;;;5.46;55.88;101333.75;17003240;26;20125;-84
2024/04/20 21:10:56;;;;;;;0.00;0.00;;;;;;;5.26;57.53;101404.19;16976694;26;20002;-84
2024/04/20 21:18:33;;;;;;;;;;;;;;;5.27;58.18;101477.72;16979091;21;20005;-46
2024/04/20 21:26:17;;;;;;;0.35;0.35;;;;;;;5.39;59.44;101487.13;16684605;26;20255;-46
2024/04/20 21:33:55;;;;;;;0.00;0.00;;;;;;;5.36;58.52;101480.31;16685272;26;20044;-49
2024/04/20 21:41:33;;;;;;;0.00;0.00;;;;;;;6.05;58.13;101467.78;16659103;26;20519;-47
2024/04/20 21:49:11;;;;;;;0.00;0.00;;;;;;;5.39;60.15;101489.78;16677776;26;20492;-51
2024/04/20 21:56:50;;;;;;;0.30;0.30;;;;;;;5.27;61.11;101499.00;16657603;26;20015;-47
2024/04/20 22:04:25;;;;;;;0.05;0.05;;;;;;;4.85;62.45;101497.91;16681155;26;20011;-49
2024/04/20 22:12:07;;;;;;;0.00;0.00;;;;;;;4.83;63.09;101507.03;16686450;26;20252;-48
2024/04/20 22:19:43;;;;;;;0.05;0.05;;;;;;;4.90;61.01;101480.66;16684007;26;20075;-47
2024/04/20 22:27:20;;;;;;;0.00;0.00;;;;;;;4.89;61.90;101513.53;16681844;26;20038;-51
2024/04/20 22:34:56;;;;;;;0.00;0.00;;;;;;;5.01;60.79;101504.34;16667549;26;20004;-50
2024/04/20 22:42:36;;;;;;;0.57;0.57;;;;;;;4.83;61.09;101510.50;16680114;26;20043;-47
2024/04/20 22:50:11;;;;;;;0.15;0.15;;;;;;;5.11;61.01;101513.88;16719095;26;20538;-47
2024/04/20 22:57:50;;;;;;;0.00;0.00;;;;;;;5.24;61.48;101517.97;16790553;26;20015;-46
2024/04/20 23:05:26;;;;;;;4.43;0.80;;;;;;;4.82;61.35;101519.50;16791145;26;20011;-50
2024/04/20 23:13:07;;;;;;;0.00;0.00;;;;;;;4.67;61.65;101509.56;16791049;26;20102;-50
2024/04/20 23:20:46;;;;;;;0.10;0.10;;;;;;;3.84;64.71;101510.50;16753301;26;20043;-46
2024/04/20 23:28:23;;;;;;;0.63;0.55;;;;;;;4.40;63.52;101518.44;16673630;26;20001;-46
2024/04/20 23:36:00;;;;;;;1.02;0.55;;;;;;;4.15;63.91;101520.84;16670442;26;20000;-49
2024/04/20 23:43:41;;;;;;;0.00;0.00;;;;;;;4.02;64.51;101528.31;16678379;26;20005;-47
2024/04/20 23:51:17;;;;;;;0.47;0.47;;;;;;;3.71;65.06;101528.59;16691552;26;19997;-48
2024/04/20 23:58:55;;;;;;;0.20;0.20;;;;;;;4.38;63.24;101523.88;16673488;26;20007;-47
